Time;durP1;ratioP1;P1;durP2;ratioP2;P2;SDS_P1;SDS_P2;PMS_P1;PMS_P2;Temp;Humidity;BMP_temperature;BMP_pressure;BME280_temperature;BME280_humidity;BME280_pressure;Samples;Min_cycle;Max_cycle;Signal;HPM_P1;HPM_P2
2021/10/22 00:01:59;;;;;;;0.10;0.10;;;;;;;8.27;100.00;99923.63;5047402;28;20094;-67
2021/10/22 00:04:25;;;;;;;0.00;0.00;;;;;;;8.31;100.00;99927.16;5061353;28;20233;-67
2021/10/22 00:06:50;;;;;;;0.10;0.10;;;;;;;8.39;100.00;99926.16;5071945;28;20075;-66
2021/10/22 00:09:15;;;;;;;0.05;0.05;;;;;;;8.36;100.00;99931.47;5073005;28;20044;-66
2021/10/22 00:11:45;;;;;;;0.52;0.52;;;;;;;8.32;100.00;99925.25;5072837;28;20090;-67
2021/10/22 00:14:13;;;;;;;0.10;0.10;;;;;;;8.34;100.00;99923.00;5073357;28;20520;-67
2021/10/22 00:16:39;;;;;;;0.00;0.00;;;;;;;8.37;100.00;99931.09;5064063;28;20041;-66
2021/10/22 00:19:05;;;;;;;0.10;0.10;;;;;;;8.34;100.00;99939.88;5061734;28;20033;-67
2021/10/22 00:21:30;;;;;;;0.08;0.08;;;;;;;8.40;100.00;99933.03;5070448;28;20056;-66
2021/10/22 00:23:56;;;;;;;0.10;0.10;;;;;;;8.35;100.00;99930.69;5063361;28;20048;-67
2021/10/22 00:26:22;;;;;;;0.00;0.00;;;;;;;8.40;100.00;99933.03;5070288;28;20032;-67
2021/10/22 00:28:47;;;;;;;0.08;0.08;;;;;;;8.43;100.00;99921.63;5059174;28;20039;-67
2021/10/22 00:31:13;;;;;;;0.10;0.10;;;;;;;8.49;100.00;99933.59;5071462;28;20025;-66
2021/10/22 00:33:39;;;;;;;0.08;0.08;;;;;;;8.46;100.00;99926.25;5071987;28;20044;-66
2021/10/22 00:36:06;;;;;;;0.22;0.10;;;;;;;8.50;100.00;99935.13;5048842;28;20039;-67
2021/10/22 00:38:32;;;;;;;0.10;0.10;;;;;;;8.50;100.00;99942.41;5059902;28;20033;-67
2021/10/22 00:40:58;;;;;;;0.10;0.10;;;;;;;8.36;100.00;99956.38;5071746;28;20573;-66
2021/10/22 00:43:28;;;;;;;0.10;0.10;;;;;;;8.43;100.00;99943.09;5059876;28;20029;-67
2021/10/22 00:45:53;;;;;;;0.00;0.00;;;;;;;8.37;100.00;99931.09;5069255;28;20072;-67
2021/10/22 00:48:19;;;;;;;0.08;0.08;;;;;;;8.46;100.00;99928.19;5054119;28;20066;-66
2021/10/22 00:50:49;;;;;;;0.10;0.10;;;;;;;8.41;100.00;99933.84;5051232;28;20029;-67
2021/10/22 00:53:14;;;;;;;0.10;0.10;;;;;;;8.43;100.00;99926.97;5072432;28;20054;-67
2021/10/22 00:55:40;;;;;;;0.15;0.15;;;;;;;8.39;100.00;99936.88;5066409;28;20056;-66
2021/10/22 00:58:06;;;;;;;0.10;0.10;;;;;;;8.36;100.00;99944.88;5065489;28;20116;-67
2021/10/22 01:00:31;;;;;;;0.10;0.10;;;;;;;8.38;100.00;99924.59;5058343;28;20043;-66
2021/10/22 01:02:58;;;;;;;0.10;0.10;;;;;;;8.29;100.00;99934.78;5072313;28;20063;-67
2021/10/22 01:05:23;;;;;;;0.00;0.00;;;;;;;8.27;100.00;99929.00;5063197;28;20488;-67
2021/10/22 01:07:49;;;;;;;0.30;0.30;;;;;;;8.35;100.00;99941.41;5066524;28;20032;-66
2021/10/22 01:10:15;;;;;;;0.05;0.05;;;;;;;8.36;100.00;99936.81;5071696;28;21177;-66
2021/10/22 01:12:42;;;;;;;0.10;0.10;;;;;;;8.34;100.00;99955.19;5062819;28;20143;-66
2021/10/22 01:15:08;;;;;;;0.10;0.10;;;;;;;8.39;100.00;99944.13;5061087;28;20310;-66
2021/10/22 01:17:41;;;;;;;0.10;0.10;;;;;;;8.33;100.00;99948.25;5051087;28;20031;-67
2021/10/22 01:20:13;;;;;;;0.00;0.00;;;;;;;8.36;100.00;99955.59;5049942;28;20040;-66
2021/10/22 01:22:40;;;;;;;1.00;1.00;;;;;;;8.37;100.00;99946.41;5065552;28;20062;-66
2021/10/22 01:25:07;;;;;;;0.10;0.10;;;;;;;8.35;100.00;99951.34;5065898;28;20138;-67
2021/10/22 01:27:34;;;;;;;0.45;0.45;;;;;;;8.37;100.00;99943.72;5054559;28;20040;-67
2021/10/22 01:30:05;;;;;;;0.00;0.00;;;;;;;8.33;100.00;99961.66;5064585;28;20033;-67
2021/10/22 01:32:31;;;;;;;0.00;0.00;;;;;;;8.42;100.00;99965.66;5066307;28;20032;-66
2021/10/22 01:34:56;;;;;;;0.10;0.10;;;;;;;8.41;100.00;99966.81;5067565;28;20059;-66
2021/10/22 01:37:22;;;;;;;0.20;0.20;;;;;;;8.47;100.00;99961.91;5050657;28;20036;-67
2021/10/22 01:39:47;;;;;;;0.05;0.05;;;;;;;8.45;100.00;99956.91;5064794;28;20045;-66
2021/10/22 01:42:13;;;;;;;0.10;0.10;;;;;;;8.45;100.00;99954.22;5068375;28;20079;-67
2021/10/22 01:44:39;;;;;;;0.20;0.20;;;;;;;8.45;100.00;99950.75;5063945;28;20064;-67
2021/10/22 01:47:04;;;;;;;0.08;0.08;;;;;;;8.50;100.00;99945.09;5064543;28;20037;-67
2021/10/22 01:49:30;;;;;;;0.05;0.05;;;;;;;8.44;100.00;99958.03;5071203;28;20378;-66
2021/10/22 01:51:55;;;;;;;0.10;0.10;;;;;;;8.45;100.00;99951.53;5071052;28;20052;-67
2021/10/22 01:54:21;;;;;;;0.00;0.00;;;;;;;8.49;100.00;99936.28;5070907;28;20106;-66
2021/10/22 01:56:47;;;;;;;0.70;0.30;;;;;;;8.42;100.00;99941.50;5049216;28;20513;-67
2021/10/22 01:59:12;;;;;;;0.10;0.10;;;;;;;8.49;100.00;99955.06;5056772;28;20024;-66
2021/10/22 02:01:38;;;;;;;0.10;0.10;;;;;;;8.45;100.00;99938.13;5058851;28;20043;-67
2021/10/22 02:04:03;;;;;;;0.10;0.10;;;;;;;8.45;100.00;99946.19;5068940;28;20413;-68
2021/10/22 02:06:29;;;;;;;0.10;0.10;;;;;;;8.40;100.00;99937.66;5071023;28;20036;-68
2021/10/22 02:08:54;;;;;;;0.10;0.10;;;;;;;8.39;100.00;99931.50;5068949;28;20105;-67
2021/10/22 02:11:20;;;;;;;0.10;0.10;;;;;;;8.41;100.00;99936.50;5071211;28;20029;-68
2021/10/22 02:13:45;;;;;;;0.10;0.10;;;;;;;8.41;100.00;99936.50;5065447;28;20409;-67
2021/10/22 02:16:11;;;;;;;0.10;0.10;;;;;;;8.46;100.00;99942.34;5051319;28;20388;-66
2021/10/22 02:18:36;;;;;;;0.10;0.10;;;;;;;8.48;100.00;99934.72;5052472;28;20024;-66
2021/10/22 02:21:02;;;;;;;0.00;0.00;;;;;;;8.39;100.00;99938.78;5070680;28;20086;-67
2021/10/22 02:23:27;;;;;;;0.20;0.20;;;;;;;8.41;100.00;99928.47;5066217;28;20068;-66
2021/10/22 02:25:53;;;;;;;0.10;0.10;;;;;;;8.40;100.00;99929.63;5070276;28;20443;-66
2021/10/22 02:28:19;;;;;;;0.10;0.10;;;;;;;8.41;100.00;99920.41;5069622;28;20090;-67
2021/10/22 02:30:45;;;;;;;0.22;0.22;;;;;;;8.47;100.00;99927.81;5070404;28;20060;-67
2021/10/22 02:33:11;;;;;;;0.10;0.10;;;;;;;8.43;100.00;99924.31;5069962;28;20033;-67
2021/10/22 02:35:38;;;;;;;0.03;0.03;;;;;;;8.48;100.00;99932.03;5070601;28;20032;-67
2021/10/22 02:38:04;;;;;;;1.17;1.08;;;;;;;8.44;100.00;99928.53;5062516;28;20078;-66
2021/10/22 02:40:29;;;;;;;0.10;0.10;;;;;;;8.48;100.00;99926.66;5061872;28;20036;-67
2021/10/22 02:42:55;;;;;;;0.10;0.10;;;;;;;8.47;100.00;99924.34;5045282;28;20595;-67
2021/10/22 02:45:21;;;;;;;0.05;0.05;;;;;;;8.51;100.00;99912.56;5053777;28;20040;-66
2021/10/22 02:47:46;;;;;;;0.00;0.00;;;;;;;8.49;100.00;99919.41;5069927;28;20063;-65
2021/10/22 02:50:12;;;;;;;0.10;0.10;;;;;;;8.49;100.00;99924.78;5069998;28;20032;-65
2021/10/22 02:52:37;;;;;;;0.00;0.00;;;;;;;8.41;100.00;99917.72;5066825;28;20065;-66
2021/10/22 02:55:04;;;;;;;0.90;0.73;;;;;;;8.43;100.00;99924.31;5060208;28;20032;-67
2021/10/22 02:57:31;;;;;;;0.13;0.13;;;;;;;8.50;100.00;99916.34;5070103;28;20111;-66
2021/10/22 02:59:57;;;;;;;0.10;0.10;;;;;;;8.51;100.00;99911.78;5069481;28;20143;-66
2021/10/22 03:02:22;;;;;;;0.10;0.10;;;;;;;8.51;100.00;99920.59;5063555;28;20661;-66
2021/10/22 03:04:48;;;;;;;0.77;0.73;;;;;;;8.51;100.00;99925.97;5062811;28;20119;-67
2021/10/22 03:07:13;;;;;;;0.15;0.15;;;;;;;8.53;100.00;99915.66;5069731;28;20496;-67
2021/10/22 03:09:39;;;;;;;0.03;0.03;;;;;;;8.58;100.00;99925.28;5069670;28;20123;-66
2021/10/22 03:12:04;;;;;;;0.10;0.10;;;;;;;8.56;100.00;99914.16;5069054;28;20032;-66
2021/10/22 03:14:30;;;;;;;0.10;0.10;;;;;;;8.61;100.00;99906.59;5063585;28;20040;-67
2021/10/22 03:16:55;;;;;;;0.20;0.20;;;;;;;8.60;100.00;99914.97;5049043;28;20036;-67
2021/10/22 03:19:21;;;;;;;0.10;0.10;;;;;;;8.50;100.00;99891.44;5061027;28;20024;-66
2021/10/22 03:21:47;;;;;;;0.10;0.10;;;;;;;8.55;100.00;99902.66;5066861;28;20062;-66
2021/10/22 03:24:12;;;;;;;0.10;0.10;;;;;;;8.59;100.00;99895.44;5060506;28;20030;-67
2021/10/22 03:26:38;;;;;;;0.10;0.10;;;;;;;8.59;100.00;99897.34;5070015;28;20028;-67
2021/10/22 03:29:03;;;;;;;0.10;0.10;;;;;;;8.56;100.00;99895.38;5069114;28;20037;-66
2021/10/22 03:31:29;;;;;;;0.10;0.10;;;;;;;8.60;100.00;99888.16;5066643;28;20085;-66
2021/10/22 03:33:56;;;;;;;0.20;0.20;;;;;;;8.54;100.00;99885.00;5048085;28;20143;-64
2021/10/22 03:36:22;;;;;;;0.10;0.10;;;;;;;8.58;100.00;99869.72;5055128;28;20111;-66
2021/10/22 03:38:48;;;;;;;0.10;0.10;;;;;;;8.55;100.00;99881.19;5050125;28;20115;-67
2021/10/22 03:41:14;;;;;;;0.10;0.10;;;;;;;8.59;100.00;99879.34;5056265;28;20079;-67
2021/10/22 03:43:39;;;;;;;0.10;0.10;;;;;;;8.56;100.00;99868.53;5039212;28;20025;-66
2021/10/22 03:46:05;;;;;;;0.05;0.05;;;;;;;8.57;100.00;99872.78;5062819;28;20641;-67
2021/10/22 03:48:31;;;;;;;0.10;0.10;;;;;;;8.63;100.00;99869.41;5056242;28;20075;-65
2021/10/22 03:50:56;;;;;;;0.10;0.10;;;;;;;8.64;100.00;99878.25;5068674;28;20028;-66
2021/10/22 03:53:22;;;;;;;0.10;0.10;;;;;;;8.57;100.00;99873.56;5072997;28;20039;-66
2021/10/22 03:55:48;;;;;;;0.10;0.10;;;;;;;8.66;100.00;99860.66;5072138;28;20115;-66
2021/10/22 03:58:13;;;;;;;0.10;0.10;;;;;;;8.65;100.00;99869.06;5069022;28;20043;-66
2021/10/22 04:00:40;;;;;;;0.00;0.00;;;;;;;8.68;100.00;99866.44;5066657;28;20032;-66
2021/10/22 04:03:06;;;;;;;0.10;0.10;;;;;;;8.69;100.00;99867.22;5063586;28;20086;-66
2021/10/22 04:05:33;;;;;;;0.00;0.00;;;;;;;8.68;100.00;99871.03;5054005;28;20036;-66
2021/10/22 04:07:59;;;;;;;0.20;0.20;;;;;;;8.70;100.00;99847.28;5072183;28;20067;-66
2021/10/22 04:10:24;;;;;;;0.10;0.10;;;;;;;8.65;100.00;99844.91;5072042;28;20036;-65
2021/10/22 04:12:50;;;;;;;0.03;0.03;;;;;;;8.67;100.00;99858.75;5069685;28;20028;-67
2021/10/22 04:15:15;;;;;;;0.10;0.10;;;;;;;8.64;100.00;99849.50;5060293;28;20045;-65
2021/10/22 04:17:41;;;;;;;0.10;0.10;;;;;;;8.64;100.00;99844.13;5067940;28;20048;-66
2021/10/22 04:20:08;;;;;;;0.10;0.10;;;;;;;8.69;100.00;99846.50;5064774;28;20047;-65
2021/10/22 04:22:34;;;;;;;0.10;0.10;;;;;;;8.59;100.00;99846.34;5052863;28;20047;-66
2021/10/22 04:25:00;;;;;;;0.10;0.10;;;;;;;8.59;100.00;99828.34;5068487;28;20056;-67
2021/10/22 04:27:25;;;;;;;0.10;0.10;;;;;;;8.55;100.00;99842.84;5070447;28;20497;-67
2021/10/22 04:29:51;;;;;;;0.10;0.10;;;;;;;8.47;100.00;99844.66;5060320;28;20032;-66
2021/10/22 04:32:17;;;;;;;0.40;0.40;;;;;;;8.53;100.00;99843.22;5028860;28;20052;-66
2021/10/22 04:34:42;;;;;;;0.10;0.10;;;;;;;8.53;100.00;99831.69;5044070;28;20387;-66
2021/10/22 04:42:45;;;;;;;0.10;0.10;;;;;;;8.49;100.00;99828.19;5067956;28;20044;-65
2021/10/22 04:45:11;;;;;;;0.10;0.10;;;;;;;8.38;100.00;99819.22;5063822;28;20029;-66
2021/10/22 04:47:38;;;;;;;0.10;0.10;;;;;;;8.49;100.00;99818.25;5067325;28;20434;-67
2021/10/22 04:50:07;;;;;;;0.10;0.10;;;;;;;8.48;100.00;99815.91;5072121;28;20043;-66
2021/10/22 04:52:33;;;;;;;0.10;0.10;;;;;;;8.42;100.00;99802.03;5063700;28;20048;-66
2021/10/22 04:54:59;;;;;;;0.10;0.10;;;;;;;8.54;100.00;99817.91;5061679;28;20516;-66
2021/10/22 04:57:24;;;;;;;0.20;0.20;;;;;;;8.55;100.00;99821.38;5043636;28;20045;-67
2021/10/22 04:59:50;;;;;;;0.10;0.10;;;;;;;8.49;100.00;99804.81;5061276;28;20071;-67
2021/10/22 05:02:15;;;;;;;0.10;0.10;;;;;;;8.54;100.00;99799.13;5062152;28;20040;-66
2021/10/22 05:04:41;;;;;;;0.35;0.35;;;;;;;8.57;100.00;99793.06;5065973;28;20094;-66
2021/10/22 05:07:06;;;;;;;0.25;0.25;;;;;;;8.54;100.00;99791.09;5072366;28;20081;-66
2021/10/22 05:09:32;;;;;;;0.75;0.75;;;;;;;8.52;100.00;99795.25;5063247;28;20061;-66
2021/10/22 05:11:57;;;;;;;0.10;0.10;;;;;;;8.59;100.00;99790.78;5053592;28;20032;-67
2021/10/22 05:14:23;;;;;;;0.10;0.10;;;;;;;8.61;100.00;99793.88;5036208;28;20037;-67
2021/10/22 05:16:48;;;;;;;0.10;0.10;;;;;;;8.52;100.00;99784.53;5062116;28;20040;-67
2021/10/22 05:19:13;;;;;;;0.75;0.75;;;;;;;8.63;100.00;99780.09;5049449;28;20029;-66
2021/10/22 05:21:39;;;;;;;0.47;0.30;;;;;;;8.67;100.00;99784.34;5056583;28;20508;-66
2021/10/22 05:24:04;;;;;;;0.10;0.10;;;;;;;8.57;100.00;99771.59;5042075;28;20020;-67
2021/10/22 05:26:30;;;;;;;0.10;0.10;;;;;;;8.67;100.00;99775.56;5069794;28;20044;-67
2021/10/22 05:28:56;;;;;;;0.10;0.10;;;;;;;8.66;100.00;99761.34;5068579;28;20036;-66
2021/10/22 05:31:21;;;;;;;0.10;0.10;;;;;;;8.63;100.00;99759.38;5059181;28;20024;-67
2021/10/22 05:33:47;;;;;;;0.17;0.17;;;;;;;8.66;100.00;99747.94;5043006;28;20045;-65
2021/10/22 05:36:12;;;;;;;1.05;0.95;;;;;;;8.59;100.00;99753.22;5067127;28;20047;-67
2021/10/22 05:38:38;;;;;;;0.10;0.10;;;;;;;8.68;100.00;99756.41;5060423;28;20026;-66
2021/10/22 05:41:03;;;;;;;0.10;0.10;;;;;;;8.74;100.00;99738.06;5065252;28;20576;-66
2021/10/22 05:43:29;;;;;;;0.10;0.10;;;;;;;8.64;100.00;99734.09;5056960;28;20032;-65
2021/10/22 05:45:54;;;;;;;0.10;0.10;;;;;;;8.66;100.00;99734.53;5058636;28;20056;-66
2021/10/22 05:48:20;;;;;;;0.10;0.10;;;;;;;8.66;100.00;99737.22;5054373;28;20110;-66
2021/10/22 05:50:45;;;;;;;0.10;0.10;;;;;;;8.60;100.00;99721.78;5058274;28;20104;-67
2021/10/22 05:53:11;;;;;;;0.10;0.10;;;;;;;8.66;100.00;99731.84;5056340;28;20934;-67
2021/10/22 05:55:36;;;;;;;0.10;0.10;;;;;;;8.66;100.00;99729.16;5046285;28;20037;-66
2021/10/22 05:58:02;;;;;;;0.10;0.10;;;;;;;8.68;100.00;99723.41;5056413;28;20033;-68
2021/10/22 06:00:27;;;;;;;0.10;0.10;;;;;;;8.62;100.00;99728.34;5059413;28;20043;-67
2021/10/22 06:02:55;;;;;;;0.00;0.00;;;;;;;8.71;100.00;99728.81;5052103;28;20421;-66
2021/10/22 06:05:20;;;;;;;0.10;0.10;;;;;;;8.76;100.00;99741.16;5058890;28;20040;-67
2021/10/22 06:07:46;;;;;;;0.10;0.10;;;;;;;8.70;100.00;99732.66;5054805;28;20110;-67
2021/10/22 06:10:12;;;;;;;0.47;0.47;;;;;;;8.75;100.00;99740.38;5068042;28;20067;-68
2021/10/22 06:12:37;;;;;;;0.10;0.10;;;;;;;8.74;100.00;99732.69;5049462;28;20374;-67
2021/10/22 06:15:23;;;;;;;0.10;0.10;;;;;;;8.69;100.00;99739.16;5059947;28;20497;-67
2021/10/22 06:17:51;;;;;;;0.10;0.10;;;;;;;8.73;100.00;99734.59;4987218;28;20050;-67
2021/10/22 06:20:26;;;;;;;0.13;0.13;;;;;;;8.71;100.00;99733.44;4974247;28;20144;-67
2021/10/22 06:25:18;;;;;;;0.03;0.03;;;;;;;8.77;100.00;99724.69;4994154;28;20087;-67
2021/10/22 06:27:44;;;;;;;0.10;0.10;;;;;;;8.80;100.00;99734.72;4991119;28;20081;-68
2021/10/22 06:30:09;;;;;;;0.10;0.10;;;;;;;8.86;100.00;99719.03;4986340;28;20047;-68
2021/10/22 06:32:35;;;;;;;0.00;0.00;;;;;;;8.88;100.00;99717.53;4988015;28;20045;-68
2021/10/22 06:35:00;;;;;;;0.10;0.10;;;;;;;8.89;99.66;99712.94;4989030;28;20804;-66
2021/10/22 06:37:26;;;;;;;0.10;0.10;;;;;;;8.87;99.69;99705.25;4973760;28;20050;-69
2021/10/22 06:39:52;;;;;;;0.10;0.10;;;;;;;8.89;99.75;99716.41;4987044;28;20030;-67
2021/10/22 06:42:17;;;;;;;0.30;0.30;;;;;;;8.91;99.92;99716.81;4993524;28;20046;-68
2021/10/22 06:44:43;;;;;;;0.10;0.10;;;;;;;8.90;100.00;99707.19;4983091;28;20053;-68
2021/10/22 06:47:08;;;;;;;0.10;0.10;;;;;;;8.94;99.46;99721.44;4991328;28;20034;-68
2021/10/22 06:49:34;;;;;;;0.10;0.10;;;;;;;8.94;99.28;99721.44;4989357;28;20042;-67
2021/10/22 06:51:59;;;;;;;0.05;0.05;;;;;;;8.87;99.98;99726.72;4972495;28;20089;-68
2021/10/22 06:54:25;;;;;;;0.20;0.20;;;;;;;9.00;99.72;99719.97;5009600;28;20044;-68
2021/10/22 06:56:50;;;;;;;0.10;0.10;;;;;;;9.00;99.48;99709.22;5055441;28;20039;-67
2021/10/22 06:59:15;;;;;;;0.40;0.40;;;;;;;8.93;99.73;99708.38;5065589;28;20548;-68
2021/10/22 07:01:41;;;;;;;0.10;0.10;;;;;;;9.06;99.15;99706.97;5064991;28;20641;-69
2021/10/22 07:04:09;;;;;;;0.10;0.10;;;;;;;9.08;99.13;99710.84;5067586;28;20648;-68
2021/10/22 07:09:19;;;;;;;0.10;0.10;;;;;;;9.17;99.33;99707.09;5074003;28;20033;-67
2021/10/22 07:11:44;;;;;;;0.10;0.10;;;;;;;9.19;98.73;99710.97;5072911;28;20068;-69
2021/10/22 07:14:10;;;;;;;0.10;0.10;;;;;;;9.29;98.34;99712.22;5068682;28;20489;-67
2021/10/22 07:16:38;;;;;;;0.03;0.03;;;;;;;9.37;98.35;99713.84;5068563;28;20047;-67
2021/10/22 07:19:04;;;;;;;0.10;0.10;;;;;;;9.37;97.85;99703.84;5068456;28;20043;-68
2021/10/22 07:21:30;;;;;;;0.57;0.57;;;;;;;9.43;97.46;99699.69;5072796;28;20032;-66
2021/10/22 07:23:57;;;;;;;1.02;1.02;;;;;;;9.37;97.61;99695.78;5051732;28;20042;-66
2021/10/22 07:26:22;;;;;;;0.00;0.00;;;;;;;9.41;97.58;99706.56;5052615;28;20051;-68
2021/10/22 07:28:48;;;;;;;0.00;0.00;;;;;;;9.42;98.09;99700.06;5066913;28;20036;-68
2021/10/22 07:31:14;;;;;;;0.15;0.15;;;;;;;9.48;97.37;99703.97;5074476;28;20033;-68
2021/10/22 07:33:42;;;;;;;0.00;0.00;;;;;;;9.59;96.48;99681.41;5074979;28;20036;-67
2021/10/22 07:36:09;;;;;;;0.13;0.13;;;;;;;9.63;96.61;99684.13;5067723;28;20131;-69
2021/10/22 07:38:36;;;;;;;0.10;0.10;;;;;;;9.59;96.85;99680.63;5055481;28;20060;-68
2021/10/22 07:41:02;;;;;;;0.10;0.10;;;;;;;9.68;95.99;99678.38;5068243;28;20086;-68
2021/10/22 07:43:28;;;;;;;0.08;0.08;;;;;;;9.69;95.98;99669.19;5051185;28;20047;-68
2021/10/22 07:45:54;;;;;;;0.30;0.30;;;;;;;9.72;96.25;99679.19;5062039;28;20502;-66
2021/10/22 07:48:20;;;;;;;0.00;0.00;;;;;;;9.70;96.81;99676.88;5062454;28;20062;-68
2021/10/22 07:50:45;;;;;;;0.10;0.10;;;;;;;9.75;95.85;99662.31;5070646;28;20040;-68
2021/10/22 07:53:11;;;;;;;0.98;0.93;;;;;;;9.73;96.04;99661.94;5071083;28;20032;-66
2021/10/22 07:55:37;;;;;;;0.08;0.08;;;;;;;9.77;95.80;99646.59;5068257;28;20051;-67
2021/10/22 07:58:03;;;;;;;0.10;0.10;;;;;;;9.81;96.40;99666.22;5049263;28;20774;-68
2021/10/22 08:00:29;;;;;;;0.10;0.10;;;;;;;9.90;95.75;99680.09;5059936;28;20060;-66
2021/10/22 08:02:54;;;;;;;0.10;0.10;;;;;;;9.91;95.95;99665.53;5055955;28;20021;-67
2021/10/22 08:05:21;;;;;;;0.00;0.00;;;;;;;9.93;97.03;99658.59;5066129;28;20054;-67
2021/10/22 08:07:48;;;;;;;0.08;0.08;;;;;;;9.84;99.18;99671.63;5041177;28;20119;-67
2021/10/22 08:10:14;;;;;;;0.10;0.10;;;;;;;9.83;100.00;99677.38;5042050;28;20104;-68
2021/10/22 08:12:40;;;;;;;0.10;0.10;;;;;;;9.74;100.00;99669.63;5049195;28;20036;-68
2021/10/22 08:15:06;;;;;;;0.10;0.10;;;;;;;9.79;100.00;99688.06;5043792;28;20033;-68
2021/10/22 08:17:32;;;;;;;0.10;0.10;;;;;;;9.75;100.00;99695.38;5068634;28;20036;-67
2021/10/22 08:20:01;;;;;;;0.30;0.30;;;;;;;9.80;100.00;99672.72;5066537;28;20480;-68
2021/10/22 08:22:29;;;;;;;0.10;0.10;;;;;;;9.70;100.00;99678.78;5057362;28;20045;-67
2021/10/22 08:25:08;;;;;;;0.10;0.10;;;;;;;9.73;100.00;99673.47;5058337;28;20432;-68
2021/10/22 08:27:37;;;;;;;0.08;0.08;;;;;;;9.74;100.00;99679.59;5062734;28;20033;-68
2021/10/22 08:30:05;;;;;;;0.00;0.00;;;;;;;9.67;100.00;99676.84;5063715;28;20028;-67
2021/10/22 08:32:32;;;;;;;0.05;0.05;;;;;;;9.72;100.00;99679.19;5069173;28;20032;-68
2021/10/22 08:34:58;;;;;;;0.10;0.10;;;;;;;9.68;100.00;99675.69;5069564;28;20028;-68
2021/10/22 08:37:24;;;;;;;0.03;0.03;;;;;;;9.76;100.00;99672.72;5059457;28;20112;-67
2021/10/22 08:39:52;;;;;;;0.10;0.10;;;;;;;9.77;100.00;99674.25;5067415;28;20036;-68
2021/10/22 08:42:21;;;;;;;0.08;0.08;;;;;;;9.85;100.00;99678.53;5069102;28;20127;-68
2021/10/22 08:44:47;;;;;;;0.00;0.00;;;;;;;9.86;100.00;99669.31;5067710;28;20086;-67
2021/10/22 08:47:13;;;;;;;0.10;0.10;;;;;;;9.91;100.00;99665.53;5045951;28;20427;-67
2021/10/22 08:49:39;;;;;;;0.10;0.10;;;;;;;10.06;100.00;99664.47;5054883;28;20033;-67
2021/10/22 08:52:08;;;;;;;0.05;0.05;;;;;;;10.08;100.00;99662.16;5063826;28;20055;-67
2021/10/22 08:54:35;;;;;;;0.10;0.10;;;;;;;10.19;100.00;99664.94;5052252;28;20412;-67
2021/10/22 08:57:03;;;;;;;0.25;0.20;;;;;;;10.28;100.00;99655.38;5067350;28;20029;-66
2021/10/22 08:59:30;;;;;;;0.13;0.13;;;;;;;10.27;100.00;99661.91;5068234;28;20048;-66
2021/10/22 09:02:20;;;;;;;0.10;0.10;;;;;;;10.28;100.00;99655.38;5071233;28;20028;-67
2021/10/22 09:04:47;;;;;;;0.10;0.10;;;;;;;10.27;100.00;99661.91;5058167;28;20071;-66
2021/10/22 09:07:21;;;;;;;0.15;0.15;;;;;;;10.43;100.00;99664.31;5060766;28;20479;-68
2021/10/22 09:10:05;;;;;;;0.00;0.00;;;;;;;10.47;99.33;99638.94;5069065;28;20046;-67
2021/10/22 09:13:04;;;;;;;0.00;0.00;;;;;;;10.48;99.57;99672.00;5057850;28;20490;-67
2021/10/22 09:15:32;;;;;;;0.43;0.20;;;;;;;10.51;99.92;99665.88;5041564;28;21256;-67
2021/10/22 09:18:02;;;;;;;0.03;0.03;;;;;;;10.50;100.00;99678.56;5055033;28;20040;-67
2021/10/22 09:20:28;;;;;;;0.00;0.00;;;;;;;10.51;99.80;99677.41;5057028;28;20086;-67
2021/10/22 09:22:59;;;;;;;0.15;0.15;;;;;;;10.44;100.00;99677.38;5059422;28;20037;-66
2021/10/22 09:25:30;;;;;;;0.00;0.00;;;;;;;10.43;100.00;99680.44;5049480;28;20090;-67
2021/10/22 09:27:58;;;;;;;0.10;0.10;;;;;;;10.40;100.00;99671.22;5058569;28;20032;-66
2021/10/22 09:30:25;;;;;;;1.67;0.63;;;;;;;10.28;100.00;99668.84;5053497;28;20028;-67
2021/10/22 09:32:52;;;;;;;0.10;0.10;;;;;;;10.21;100.00;99679.56;5066757;28;20028;-67
2021/10/22 09:35:33;;;;;;;0.00;0.00;;;;;;;10.12;100.00;99711.41;5041824;28;20094;-68
2021/10/22 09:38:17;;;;;;;;;;;;;;;9.92;100.00;99710.09;5056056;28;20519;-67
2021/10/22 09:40:45;;;;;;;0.10;0.10;;;;;;;9.98;100.00;99719.34;5066293;28;19924;-67
2021/10/22 09:43:18;;;;;;;0.10;0.10;;;;;;;9.80;100.00;99695.00;5083102;28;20032;-69
2021/10/22 09:45:47;;;;;;;0.10;0.10;;;;;;;9.79;100.00;99700.78;5073190;28;20028;-69
2021/10/22 09:48:24;;;;;;;0.00;0.00;;;;;;;9.82;100.00;99689.25;5055773;28;20032;-68
2021/10/22 09:50:49;;;;;;;0.10;0.10;;;;;;;9.86;100.00;99688.16;5073540;28;20051;-69
2021/10/22 09:53:27;;;;;;;0.98;0.98;;;;;;;9.81;100.00;99679.66;5051994;28;20040;-69
2021/10/22 09:56:02;;;;;;;0.00;0.00;;;;;;;9.88;100.00;99679.69;5039814;28;20064;-70
2021/10/22 09:58:29;;;;;;;0.10;0.10;;;;;;;9.87;100.00;99689.69;5065769;28;20734;-69
2021/10/22 10:01:11;;;;;;;0.10;0.10;;;;;;;9.90;100.00;99683.56;5075816;28;20043;-69
2021/10/22 10:03:42;;;;;;;0.20;0.20;;;;;;;9.96;100.00;99686.69;5058730;28;20036;-68
2021/10/22 10:06:09;;;;;;;0.10;0.10;;;;;;;9.90;100.00;99701.63;5053223;28;20044;-68
2021/10/22 10:08:39;;;;;;;0.00;0.00;;;;;;;9.92;100.00;99699.31;5075189;28;20548;-69
2021/10/22 10:11:06;;;;;;;0.10;0.10;;;;;;;9.87;100.00;99694.31;5071953;28;20043;-69
2021/10/22 10:13:35;;;;;;;0.08;0.08;;;;;;;9.93;100.00;99707.00;5073728;28;20033;-68
2021/10/22 10:16:09;;;;;;;0.20;0.20;;;;;;;9.90;100.00;99718.53;5075233;28;20037;-69
2021/10/22 10:18:54;;;;;;;0.10;0.10;;;;;;;9.85;100.00;99728.84;5076540;28;20065;-70
2021/10/22 10:21:22;;;;;;;0.00;0.00;;;;;;;9.83;100.00;99742.66;5075425;28;20041;-69
2021/10/22 10:23:49;;;;;;;0.03;0.03;;;;;;;9.77;100.00;99724.56;5058838;28;20516;-69
2021/10/22 10:26:21;;;;;;;0.10;0.10;;;;;;;9.73;100.00;99723.75;5057916;28;20032;-69
2021/10/22 10:28:47;;;;;;;0.10;0.10;;;;;;;9.74;100.00;99723.38;5075257;28;20070;-69
2021/10/22 10:31:36;;;;;;;0.10;0.10;;;;;;;9.73;100.00;99729.13;5066174;28;20032;-70
2021/10/22 10:34:28;;;;;;;0.00;0.00;;;;;;;9.75;100.00;99734.91;5074113;28;20085;-68
2021/10/22 10:36:55;;;;;;;;;;;;;;;9.77;100.00;99735.31;5074437;28;20496;-70
2021/10/22 10:39:38;;;;;;;0.00;0.00;;;;;;;9.81;100.00;99731.50;5072105;28;20011;-70
2021/10/22 10:42:40;;;;;;;0.00;0.00;;;;;;;9.77;100.00;99732.63;5076894;28;20040;-70
2021/10/22 10:45:39;;;;;;;0.10;0.10;;;;;;;9.84;100.00;99730.78;5070792;28;20025;-70
2021/10/22 10:48:06;;;;;;;0.10;0.10;;;;;;;9.93;100.00;99738.50;5042723;28;20064;-69
2021/10/22 10:50:43;;;;;;;0.08;0.08;;;;;;;9.97;100.00;99742.00;5076458;28;20060;-69
2021/10/22 10:53:11;;;;;;;0.00;0.00;;;;;;;9.99;100.00;99761.22;5048213;28;20029;-69
2021/10/22 10:55:40;;;;;;;0.00;0.00;;;;;;;10.00;100.00;99754.72;5034989;28;20082;-70
2021/10/22 10:58:08;;;;;;;0.10;0.10;;;;;;;9.96;100.00;99759.28;5054485;28;20033;-71
2021/10/22 11:00:41;;;;;;;0.10;0.10;;;;;;;9.95;100.00;99790.78;5060309;28;20100;-70
2021/10/22 11:03:11;;;;;;;0.00;0.00;;;;;;;9.84;100.00;99781.84;5056954;28;20493;-70
2021/10/22 11:05:46;;;;;;;0.00;0.00;;;;;;;9.91;100.00;99791.91;5080539;28;20037;-71
2021/10/22 11:08:21;;;;;;;0.00;0.00;;;;;;;9.95;100.00;99790.00;5081068;28;20104;-71
2021/10/22 11:11:00;;;;;;;0.00;0.00;;;;;;;9.94;100.00;99788.47;5074308;28;20044;-71
2021/10/22 11:13:51;;;;;;;0.13;0.13;;;;;;;9.99;100.00;99794.28;5077282;28;20126;-70
2021/10/22 11:16:20;;;;;;;0.10;0.10;;;;;;;10.02;100.00;99782.78;5070299;28;20094;-71
2021/10/22 11:18:48;;;;;;;0.10;0.10;;;;;;;9.98;100.00;99794.66;5052991;28;20028;-70
2021/10/22 11:21:14;;;;;;;0.75;0.75;;;;;;;10.00;100.00;99801.22;5059363;28;20060;-70
2021/10/22 11:23:40;;;;;;;0.00;0.00;;;;;;;10.10;100.00;99805.16;5052731;28;20037;-70
2021/10/22 11:26:05;;;;;;;0.00;0.00;;;;;;;10.09;100.00;99795.50;5058138;28;20089;-71
2021/10/22 11:28:32;;;;;;;0.10;0.10;;;;;;;10.10;100.00;99802.47;5053948;28;20100;-70
2021/10/22 11:30:57;;;;;;;0.10;0.10;;;;;;;10.11;100.00;99787.88;5045124;28;20037;-70
2021/10/22 11:33:26;;;;;;;0.10;0.10;;;;;;;10.15;100.00;99794.06;5063205;28;20024;-70
2021/10/22 11:35:53;;;;;;;0.03;0.03;;;;;;;10.25;100.00;99793.38;5062491;28;20040;-71
2021/10/22 11:38:28;;;;;;;0.00;0.00;;;;;;;10.26;100.00;99789.50;5043085;28;20344;-71
2021/10/22 11:40:55;;;;;;;0.00;0.00;;;;;;;10.41;100.00;99790.41;5051623;28;20036;-69
2021/10/22 11:43:21;;;;;;;0.00;0.00;;;;;;;10.45;100.00;99789.25;5049059;28;20044;-70
2021/10/22 11:45:53;;;;;;;0.03;0.03;;;;;;;10.44;100.00;99776.97;5071734;28;20088;-70
2021/10/22 11:48:32;;;;;;;0.00;0.00;;;;;;;10.46;100.00;99782.75;5035583;28;20255;-70